ADDS METAR Data INFO
IDs: Format: Raw Decoded Include TAF

Data at: 0750 UTC 24 May 2018

KDZB 240735Z AUTO 00000KT 10SM CLR 22/20 A3008 RMK AO2 T02180200
KDZB 240715Z AUTO 00000KT 10SM CLR 22/20 A3008 RMK AO2 T02200200
KDZB 240655Z AUTO 15003KT 10SM CLR 22/20 A3008 RMK AO2 T02200200
KDZB 240635Z AUTO 12003KT 10SM CLR 22/20 A3008 RMK AO2 T02160197
KDZB 240615Z AUTO 00000KT 10SM CLR 22/20 A3009 RMK AO2 T02190196
KDZB 240555Z AUTO 00000KT 10SM SCT021 22/20 A3008 RMK AO2 T02230198 10300 20210 403320197
KDZB 240535Z AUTO 00000KT 10SM SCT021 21/19 A3008 RMK AO2 T02110192
KDZB 240515Z AUTO 00000KT 10SM CLR 21/19 A3007 RMK AO2 T02130191
KDZB 240455Z AUTO 00000KT 10SM CLR 22/19 A3008 RMK AO2 T02200191
KDZB 240435Z AUTO 00000KT 10SM CLR 23/19 A3007 RMK AO2 T02260192
KDZB 240415Z AUTO 00000KT 10SM CLR 23/19 A3006 RMK AO2 T02320194
KDZB 240355Z AUTO 00000KT 10SM CLR 24/19 A3006 RMK AO2 T02350192
KDZB 240335Z AUTO 00000KT 10SM CLR 24/19 A3005 RMK AO2 LTG DSNT W T02400192
KDZB 240315Z AUTO 15003KT 10SM CLR 25/19 A3003 RMK AO2 T02450192
KDZB 240255Z AUTO 14003KT 10SM CLR 25/19 A3003 RMK AO2 T02500194
KDZB 240235Z AUTO 14004KT 10SM CLR 25/20 A3002 RMK AO2 T02530195
KDZB 240215Z AUTO 13004KT 10SM CLR 26/19 A3001 RMK AO2 T02560193
KDZB 240155Z AUTO 13004KT 10SM CLR 26/19 A3000 RMK AO2 T02610193
KDZB 240135Z AUTO 12006KT 10SM CLR 27/19 A2999 RMK AO2 T02650192
KDZB 240115Z AUTO 12005KT 10SM CLR 27/19 A2999 RMK AO2 T02700190
KDZB 240055Z AUTO 13005KT 10SM CLR 28/19 A2998 RMK AO2 T02760188
KDZB 240035Z AUTO 12005KT 10SM CLR 29/18 A2997 RMK AO2 T02850180
KDZB 240015Z AUTO 11008KT 10SM CLR 29/18 A2997 RMK AO2 T02930181
KDZB 232355Z AUTO 10006KT 10SM CLR 30/19 A2997 RMK AO2 T02980189 10332 20293
KDZB 232335Z AUTO 11007G15KT 10SM SCT070 SCT100 30/19 A2998 RMK AO2 T02990193
KDZB 232315Z AUTO 13009G17KT 10SM SCT065 BKN080 BKN100 29/19 A2998 RMK AO2 T02940191
KDZB 232255Z AUTO 11008G14KT 10SM OVC065 31/18 A2997 RMK AO2 T03130175
KDZB 232235Z AUTO 14004KT 10SM SCT065 SCT080 BKN120 33/17 A2997 RMK AO2 T03320168
KDZB 232215Z AUTO 16005KT 10SM SCT120 32/17 A2997 RMK AO2 T03230169
KDZB 232155Z AUTO 19005KT 10SM SCT060 32/17 A2998 RMK AO2 T03160167
KDZB 232135Z AUTO 16003KT 10SM SCT060 SCT080 31/17 A2999 RMK AO2 LTG DSNT E T03050170
KDZB 232115Z AUTO 09006KT 10SM SCT060 BKN080 BKN090 33/17 A2999 RMK AO2 T03270168
KDZB 232055Z AUTO 09003KT 10SM SCT065 BKN090 31/17 A3000 RMK AO2 T03130167
KDZB 232035Z AUTO 12004KT 10SM BKN050 BKN070 OVC090 31/17 A3001 RMK AO2 T03090170
KDZB 232015Z AUTO 15003KT 10SM BKN050 BKN070 BKN080 31/18 A3001 RMK AO2 LTG DSNT SE T03060177
KDZB 231955Z AUTO 00000KT 10SM SCT050 BKN070 BKN080 31/18 A3001 RMK AO2 T03050177
KDZB 231935Z AUTO 16003KT 10SM BKN050 OVC070 31/17 A3001 RMK AO2 T03060172
KDZB 231915Z AUTO 17007KT 10SM BKN050 BKN070 30/18 A3002 RMK AO2 T03020177
KDZB 231855Z AUTO 00000KT 10SM BKN050 BKN065 BKN080 32/18 A3003 RMK AO2 LTG DSNT SE T03150183
KDZB 231835Z AUTO 13005KT 10SM BKN049 BKN065 BKN080 30/18 A3003 RMK AO2 T03040177
KDZB 231815Z AUTO 25003KT 10SM SCT049 SCT060 BKN075 30/18 A3004 RMK AO2 T03030177
KDZB 231755Z AUTO 10003KT 10SM CLR 31/18 A3005 RMK AO2 T03100178 10310 20197
KDZB 231735Z AUTO 13005KT 10SM SCT045 SCT050 31/18 A3005 RMK AO2 T03090179
KDZB 231715Z AUTO 16003KT 10SM SCT043 BKN050 30/18 A3006 RMK AO2 T03010184
KDZB 231655Z AUTO 14005KT 10SM SCT040 BKN047 BKN050 30/19 A3006 RMK AO2 T02990185
KDZB 231635Z AUTO 15006KT 10SM BKN038 BKN045 BKN050 30/19 A3007 RMK AO2 LTG DSNT E T02970187
KDZB 231615Z AUTO 19004KT 10SM BKN036 OVC043 27/19 A3007 RMK AO2 LTG DSNT SE T02740188
KDZB 231555Z AUTO 20003KT 10SM BKN032 BKN038 27/19 A3008 RMK AO2 T02690193
KDZB 231535Z AUTO 20003KT 10SM SCT030 BKN036 28/20 A3008 RMK AO2 T02820196
KDZB 231515Z AUTO 18006KT 10SM SCT026 BKN033 BKN041 26/19 A3008 RMK AO2 T02630193
KDZB 231455Z AUTO 19005KT 10SM BKN026 OVC030 27/20 A3007 RMK AO2 T02740200
KDZB 231435Z AUTO 20005KT 10SM BKN025 OVC030 26/20 A3007 RMK AO2 T02580200
KDZB 231415Z AUTO 00000KT 10SM BKN018 OVC025 25/20 A3007 RMK AO2 T02510201
KDZB 231355Z AUTO 19004KT 10SM OVC015 25/20 A3006 RMK AO2 T02510204
KDZB 231335Z AUTO 17006KT 10SM BKN013 24/21 A3006 RMK AO2 T02380209
KDZB 231315Z AUTO 17004KT 10SM BKN011 BKN017 23/21 A3006 RMK AO2 T02290210
KDZB 231255Z AUTO 00000KT 10SM CLR 22/21 A3006 RMK AO2 LTG DSNT SE T02160207
KDZB 231235Z AUTO 00000KT 7SM SCT011 SCT020 21/20 A3005 RMK AO2 T02050197
KDZB 231215Z AUTO 00000KT 5SM BR SCT011 20/19 A3004 RMK AO2 T01990191
KDZB 231155Z AUTO 00000KT 5SM BR CLR 20/20 A3002 RMK AO2 T02030195 10230 20202
KDZB 231135Z AUTO 00000KT 7SM SCT011 BKN019 20/19 A3001 RMK AO2 T02030193
KDZB 231115Z AUTO 00000KT 10SM BKN011 21/20 A3001 RMK AO2 T02060195
KDZB 231055Z AUTO 00000KT 10SM SCT013 SCT018 21/20 A3000 RMK AO2 T02140199
KDZB 231035Z AUTO 15003KT 10SM SCT016 22/20 A3000 RMK AO2 T02170200
KDZB 231015Z AUTO 15003KT 10SM BKN014 22/20 A3000 RMK AO2 T02210201
KDZB 230955Z AUTO 17003KT 10SM OVC014 22/20 A2999 RMK AO2 T02200201
KDZB 230935Z AUTO 00000KT 10SM BKN012 22/20 A2999 RMK AO2 T02150199
KDZB 230910Z AUTO 00000KT 10SM SCT012 21/20 A2999 RMK AO2 T02140196
KDZB 230855Z AUTO 00000KT 10SM CLR 22/20 A2999 RMK AO2 T02150197
KDZB 230835Z AUTO 16003KT 10SM CLR 22/20 A2999 RMK AO2 T02180197
KDZB 230815Z AUTO 17004KT 10SM CLR 22/20 A2999 RMK AO2 T02200197
KDZB 230755Z AUTO 16003KT 10SM CLR 22/20 A2999 RMK AO2 T02200195
KDZB 230735Z AUTO 15006KT 10SM CLR 22/20 A2999 RMK AO2 T02220195
KDZB 230715Z AUTO 15004KT 10SM CLR 22/19 A3000 RMK AO2 T02230193
KDZB 230655Z AUTO 15004KT 10SM CLR 23/19 A3000 RMK AO2 T02250192
KDZB 230635Z AUTO 15004KT 10SM CLR 23/19 A3000 RMK AO2 T02280192
KDZB 230615Z AUTO 16007KT 10SM CLR 23/19 A3000 RMK AO2 T02300190
KDZB 230555Z AUTO 15005KT 10SM CLR 23/19 A3001 RMK AO2 T02300189 10307 20230 403310201
KDZB 230535Z AUTO 16004KT 10SM CLR 23/19 A3001 RMK AO2 T02310186
KDZB 230515Z AUTO 15006KT 10SM CLR 23/19 A3001 RMK AO2 T02310185
KDZB 230455Z AUTO 16004KT 10SM CLR 23/19 A3001 RMK AO2 T02340186
KDZB 230435Z AUTO 14005KT 10SM CLR 24/19 A3000 RMK AO2 T02380186
KDZB 230415Z AUTO 14005KT 10SM CLR 24/19 A3000 RMK AO2 T02380186
KDZB 230355Z AUTO 14004KT 10SM CLR 24/19 A2999 RMK AO2 T02400185
KDZB 230335Z AUTO 14005KT 10SM CLR 24/19 A2999 RMK AO2 T02420186
KDZB 230315Z AUTO 14004KT 10SM CLR 25/19 A2998 RMK AO2 T02450185
KDZB 230255Z AUTO 15004KT 10SM CLR 25/19 A2997 RMK AO2 LTG DSNT NW T02460185
KDZB 230235Z AUTO 13004KT 10SM CLR 25/18 A2997 RMK AO2 T02520182
KDZB 230215Z AUTO 15004KT 10SM CLR 26/18 A2996 RMK AO2 T02560180
KDZB 230150Z AUTO 14004KT 10SM CLR 26/18 A2995 RMK AO2 T02630179
KDZB 230135Z AUTO 14005KT 10SM CLR 27/18 A2994 RMK AO2 T02690179
KDZB 230115Z AUTO 14005KT 10SM CLR 28/18 A2994 RMK AO2 T02750183
KDZB 230055Z AUTO 14009G14KT 10SM CLR 28/19 A2993 RMK AO2 T02830193
KDZB 230035Z AUTO 14007G14KT 10SM CLR 29/20 A2993 RMK AO2 T02910196
KDZB 230015Z AUTO 14008G15KT 100V160 10SM CLR 30/19 A2992 RMK AO2 T02970190
KDZB 222355Z AUTO 13008KT 10SM SCT065 31/18 A2992 RMK AO2 T03060178 10331 20298
KDZB 222335Z AUTO 12007G14KT 080V160 10SM SCT065 SCT090 31/18 A2992 RMK AO2 T03090178
KDZB 222315Z AUTO 11005KT 10SM SCT060 SCT065 BKN090 32/18 A2992 RMK AO2 T03150179
KDZB 222255Z AUTO 15007KT 10SM SCT060 SCT070 32/18 A2992 RMK AO2 T03180176
KDZB 222235Z AUTO 15006G16KT 10SM SCT060 SCT080 32/18 A2991 RMK AO2 T03160176
KDZB 222215Z AUTO 12008G16KT 10SM SCT065 32/17 A2992 RMK AO2 T03170174
KDZB 222155Z AUTO 13007G15KT 10SM BKN050 BKN070 BKN075 32/17 A2992 RMK AO2 T03170173
KDZB 222135Z AUTO 13007KT 10SM SCT050 SCT065 SCT075 33/18 A2993 RMK AO2 T03290181
KDZB 222115Z AUTO 14006KT 10SM SCT055 BKN065 31/18 A2993 RMK AO2 T03120180
KDZB 222055Z AUTO 15007KT 10SM BKN050 BKN075 BKN095 32/18 A2994 RMK AO2 T03190183
KDZB 222035Z AUTO 12006KT 10SM SCT050 BKN060 BKN075 31/18 A2994 RMK AO2 T03140181
KDZB 222015Z AUTO 11006KT 10SM SCT048 SCT060 32/19 A2995 RMK AO2 T03170188
KDZB 221955Z AUTO 14007KT 10SM BKN050 BKN065 30/19 A2996 RMK AO2 T03000186